createdAt,value
2022-10-11T00:00:19.898Z,14.15
2022-10-11T00:02:49.582Z,11.16
2022-10-11T00:05:17.705Z,13.69
2022-10-11T00:07:45.511Z,13.68
2022-10-11T00:10:13.405Z,11.80
2022-10-11T00:12:41.165Z,12.73
2022-10-11T00:15:13.387Z,14.19
2022-10-11T00:17:41.135Z,13.23
2022-10-11T00:20:09.614Z,12.18
2022-10-11T00:22:37.557Z,12.18
2022-10-11T00:25:06.392Z,13.61
2022-10-11T00:27:34.584Z,13.39
2022-10-11T00:30:02.417Z,11.09
2022-10-11T00:32:31.750Z,13.11
2022-10-11T00:35:04.961Z,11.68
2022-10-11T00:37:32.833Z,12.76
2022-10-11T00:40:00.723Z,13.82
2022-10-11T00:42:28.482Z,13.19
2022-10-11T00:45:37.211Z,14.08
2022-10-11T00:48:10.042Z,14.11
2022-10-11T00:50:37.803Z,14.16
2022-10-11T00:53:07.883Z,14.14
2022-10-11T00:55:38.764Z,11.13
2022-10-11T00:58:06.612Z,13.09
2022-10-11T01:00:34.450Z,14.22
2022-10-11T01:03:02.351Z,13.63
2022-10-11T01:05:31.833Z,13.02
2022-10-11T01:08:00.757Z,13.52
2022-10-11T01:10:28.628Z,11.10
2022-10-11T01:13:03.070Z,14.25
2022-10-11T01:15:32.448Z,12.55
2022-10-11T01:18:01.784Z,12.53
2022-10-11T01:20:52.084Z,13.49
2022-10-11T01:23:30.923Z,13.63
2022-10-11T01:26:28.234Z,13.24
2022-10-11T01:29:01.293Z,14.50
2022-10-11T01:31:33.283Z,13.10
2022-10-11T01:34:03.182Z,13.39
2022-10-11T01:36:33.101Z,14.63
2022-10-11T01:39:04.105Z,14.67
2022-10-11T01:41:34.160Z,14.07
2022-10-11T01:44:02.094Z,12.97
2022-10-11T01:46:31.225Z,13.42
2022-10-11T01:48:59.883Z,13.04
2022-10-11T01:51:30.344Z,14.37
2022-10-11T01:54:14.913Z,12.44
2022-10-11T01:57:05.531Z,12.14
2022-10-11T01:59:40.866Z,13.56
2022-10-11T02:02:15.509Z,13.67
2022-10-11T02:04:44.859Z,13.96
2022-10-11T02:07:14.126Z,14.78
2022-10-11T02:09:43.911Z,13.05
2022-10-11T02:12:13.296Z,14.49
2022-10-11T02:14:42.483Z,14.32
2022-10-11T02:17:12.968Z,13.78
2022-10-11T02:19:43.011Z,13.03
2022-10-11T02:22:13.441Z,12.59
2022-10-11T02:24:42.436Z,12.05
2022-10-11T02:27:10.321Z,11.96
2022-10-11T02:29:39.369Z,14.05
2022-10-11T02:32:07.178Z,12.84
2022-10-11T02:34:37.210Z,13.73
2022-10-11T02:37:06.184Z,13.25
2022-10-11T02:39:36.810Z,13.83
2022-10-11T02:42:06.218Z,13.34
2022-10-11T02:44:37.968Z,12.40
2022-10-11T02:47:05.788Z,14.31
2022-10-11T02:49:33.650Z,13.56
2022-10-11T02:52:04.647Z,13.99
2022-10-11T02:54:32.489Z,14.27
2022-10-11T02:57:00.318Z,14.26
2022-10-11T02:59:28.128Z,13.64
2022-10-11T03:01:55.999Z,14.25
2022-10-11T03:04:23.917Z,13.65
2022-10-11T03:06:51.717Z,14.28
2022-10-11T03:09:20.995Z,13.40
2022-10-11T03:11:48.739Z,12.41
2022-10-11T03:14:16.530Z,13.86
2022-10-11T03:16:44.373Z,13.57
2022-10-11T03:19:15.700Z,13.25
2022-10-11T03:21:46.212Z,14.15
2022-10-11T03:24:13.968Z,14.14
2022-10-11T03:26:43.037Z,13.36
2022-10-11T03:29:10.806Z,14.13
2022-10-11T03:31:38.612Z,12.96
2022-10-11T03:34:06.500Z,13.26
2022-10-11T03:36:34.314Z,11.30
2022-10-11T03:39:03.169Z,13.20
2022-10-11T03:41:31.229Z,12.91
2022-10-11T03:44:00.378Z,11.73
2022-10-11T03:46:28.109Z,11.11
2022-10-11T03:48:55.861Z,12.06
2022-10-11T03:51:23.626Z,13.79
2022-10-11T03:53:51.482Z,12.80
2022-10-11T03:56:19.144Z,13.20
2022-10-11T03:58:46.909Z,12.28
2022-10-11T04:01:16.037Z,13.84
2022-10-11T04:03:43.840Z,13.81
2022-10-11T04:06:11.551Z,11.98
2022-10-11T04:08:39.208Z,12.16
2022-10-11T04:11:06.895Z,11.11
2022-10-11T04:13:35.154Z,12.37
2022-10-11T04:16:03.457Z,12.83
2022-10-11T04:18:33.065Z,13.60
2022-10-11T04:21:09.948Z,13.62
2022-10-11T04:23:53.932Z,11.88
2022-10-11T04:26:23.842Z,11.74
2022-10-11T04:28:51.684Z,13.70
2022-10-11T04:31:24.234Z,11.85
2022-10-11T04:33:59.533Z,12.79
2022-10-11T04:36:29.764Z,11.82
2022-10-11T04:39:01.565Z,13.34
2022-10-11T04:41:31.995Z,13.59
2022-10-11T04:44:11.472Z,11.91
2022-10-11T04:46:55.731Z,12.56
2022-10-11T04:49:30.908Z,13.47
2022-10-11T04:52:15.607Z,13.41
2022-10-11T04:54:43.407Z,12.91
2022-10-11T04:57:11.265Z,11.51
2022-10-11T04:59:39.665Z,13.23
2022-10-11T05:02:07.874Z,13.10
2022-10-11T05:04:37.253Z,11.92
2022-10-11T05:07:06.502Z,10.49
2022-10-11T05:09:34.369Z,12.00
2022-10-11T05:12:02.286Z,11.20
2022-10-11T05:14:30.159Z,12.87
2022-10-11T05:16:58.041Z,11.98
2022-10-11T05:19:25.726Z,11.35
2022-10-11T05:21:55.094Z,12.88
2022-10-11T05:24:23.090Z,11.62
2022-10-11T05:26:50.932Z,12.12
2022-10-11T05:29:18.709Z,11.70
2022-10-11T05:34:20.614Z,12.86
2022-10-11T05:36:48.695Z,12.78
2022-10-11T05:39:18.156Z,12.74
2022-10-11T05:41:45.931Z,12.71
2022-10-11T05:44:14.801Z,12.69
2022-10-11T05:46:42.513Z,12.70
2022-10-11T05:49:10.377Z,12.68
2022-10-11T05:51:38.063Z,12.63
2022-10-11T05:54:05.981Z,12.55
2022-10-11T05:56:35.082Z,12.54
2022-10-11T05:59:02.902Z,12.49
2022-10-11T06:01:30.842Z,12.49
2022-10-11T06:03:58.532Z,12.43
2022-10-11T06:06:26.367Z,12.34
2022-10-11T06:08:54.313Z,12.27
2022-10-11T06:11:25.134Z,12.20
2022-10-11T06:13:55.353Z,12.13
2022-10-11T06:16:23.448Z,12.17
2022-10-11T06:18:53.666Z,12.15
2022-10-11T06:21:21.678Z,12.15
2022-10-11T06:23:50.082Z,12.17
2022-10-11T06:26:46.703Z,12.28
2022-10-11T06:29:15.829Z,12.32
2022-10-11T06:31:44.830Z,12.39
2022-10-11T06:34:12.517Z,12.46
2022-10-11T06:36:40.341Z,12.64
2022-10-11T06:39:08.163Z,12.94
2022-10-11T06:41:36.163Z,13.32
2022-10-11T06:44:03.971Z,13.78
2022-10-11T06:46:33.274Z,14.28
2022-10-11T06:49:00.978Z,14.68
2022-10-11T06:51:30.053Z,15.13
2022-10-11T06:53:58.609Z,15.55
2022-10-11T06:56:26.704Z,15.94
2022-10-11T07:12:14.112Z,18.76
2022-10-11T07:14:41.933Z,18.95
2022-10-11T07:17:09.525Z,19.08
2022-10-11T07:19:37.450Z,19.21
2022-10-11T07:22:05.065Z,19.19
2022-10-11T07:24:32.876Z,19.74
2022-10-11T07:27:03.548Z,19.63
2022-10-11T07:29:33.283Z,19.23
2022-10-11T07:32:04.016Z,20.15
2022-10-11T07:34:32.596Z,19.38
2022-10-11T07:37:01.557Z,21.41
2022-10-11T07:39:31.295Z,20.64
2022-10-11T07:42:00.301Z,21.33
2022-10-11T07:44:28.997Z,21.98
2022-10-11T07:46:58.124Z,22.97
2022-10-11T07:49:25.959Z,22.89
2022-10-11T07:51:56.591Z,23.20
2022-10-11T07:54:25.369Z,24.15
2022-10-11T07:56:53.058Z,24.53
2022-10-11T07:59:23.328Z,24.96
2022-10-11T09:02:19.243Z,31.80
2022-10-11T09:11:01.377Z,35.15
2022-10-11T09:13:52.670Z,34.99
2022-10-11T09:16:25.145Z,35.82
2022-10-11T09:19:06.344Z,35.75
2022-10-11T09:21:37.291Z,35.84
2022-10-11T09:24:20.727Z,35.81
2022-10-11T09:39:12.737Z,37.46
2022-10-11T09:41:50.960Z,39.26
2022-10-11T09:44:22.706Z,39.44
2022-10-11T09:46:50.359Z,39.63
2022-10-11T09:49:19.790Z,39.49
2022-10-11T09:51:52.345Z,39.68
2022-10-11T09:54:20.614Z,40.44
2022-10-11T09:56:50.444Z,40.16
2022-10-11T09:59:27.057Z,41.09
2022-10-11T10:02:20.362Z,41.96
2022-10-11T10:05:02.749Z,42.16
2022-10-11T10:07:32.328Z,42.87
2022-10-11T10:10:00.937Z,43.69
2022-10-11T10:12:31.627Z,43.82
2022-10-11T10:15:04.923Z,44.03
2022-10-11T10:17:33.244Z,44.98
2022-10-11T10:20:05.776Z,43.36
2022-10-11T10:22:34.469Z,43.17
2022-10-11T10:25:03.293Z,41.16
2022-10-11T10:27:32.788Z,38.88
2022-10-11T10:30:13.063Z,36.78
2022-10-11T10:32:48.706Z,35.51
2022-10-11T10:35:27.326Z,34.65
2022-10-11T10:38:00.958Z,35.63
2022-10-11T10:40:31.570Z,37.21
2022-10-11T10:43:01.989Z,39.25
2022-10-11T10:45:35.188Z,40.79
2022-10-11T11:32:27.604Z,30.87
2022-10-11T11:34:58.525Z,33.06
2022-10-11T11:37:27.955Z,33.47
2022-10-11T11:39:58.638Z,38.48
2022-10-11T11:42:28.222Z,40.01
2022-10-11T11:44:56.162Z,38.05
2022-10-11T11:47:27.623Z,36.37
2022-10-11T11:49:57.851Z,37.07
2022-10-11T11:52:27.704Z,40.15
2022-10-11T11:55:01.490Z,42.14
2022-10-11T11:57:37.196Z,43.61
2022-10-11T12:00:07.044Z,43.00
2022-10-11T12:02:46.623Z,41.52
2022-10-11T12:05:15.662Z,41.86
2022-10-11T12:07:58.435Z,40.09
2022-10-11T12:10:29.641Z,40.58
2022-10-11T12:13:21.464Z,39.22
2022-10-11T12:15:57.606Z,37.30
2022-10-11T12:18:27.763Z,34.30
2022-10-11T12:21:03.569Z,34.27
2022-10-11T12:23:49.886Z,33.80
2022-10-11T12:26:32.965Z,31.64
2022-10-11T12:29:09.126Z,31.34
2022-10-11T12:31:40.286Z,29.16
2022-10-11T12:34:21.703Z,27.55
2022-10-11T12:36:50.199Z,27.35
2022-10-11T12:39:52.809Z,29.17
2022-10-11T12:42:26.293Z,26.85
2022-10-11T12:45:25.823Z,28.15
2022-10-11T12:47:56.444Z,25.28
2022-10-11T12:50:28.510Z,25.82
2022-10-11T12:52:59.239Z,24.10
2022-10-11T12:55:34.733Z,24.86
2022-10-11T12:58:29.919Z,26.30
2022-10-11T13:01:18.909Z,25.56
2022-10-11T13:03:49.304Z,24.37
2022-10-11T13:06:19.533Z,22.93
2022-10-11T13:08:49.592Z,23.07
2022-10-11T13:11:21.812Z,25.08
2022-10-11T13:13:51.576Z,24.26
2022-10-11T13:16:20.319Z,25.36
2022-10-11T13:18:49.216Z,24.85
2022-10-11T13:21:23.106Z,23.20
2022-10-11T13:23:55.455Z,24.20
2022-10-11T13:26:23.249Z,24.92
2022-10-11T13:28:51.028Z,23.23
2022-10-11T13:31:18.863Z,24.66
2022-10-11T13:33:46.652Z,23.09
2022-10-11T13:36:17.602Z,23.59
2022-10-11T13:38:54.690Z,25.02
2022-10-11T13:41:22.704Z,23.73
2022-10-11T13:43:50.734Z,23.50
2022-10-11T13:46:21.840Z,23.55
2022-10-11T13:49:01.925Z,24.15
2022-10-11T13:51:36.417Z,23.75
2022-10-11T13:54:13.412Z,23.76
2022-10-11T13:56:45.757Z,23.81
2022-10-11T13:59:16.529Z,23.64
2022-10-11T14:01:45.865Z,23.45
2022-10-11T14:04:16.383Z,24.20
2022-10-11T14:06:46.661Z,24.07
2022-10-11T14:09:23.982Z,23.61
2022-10-11T14:11:52.343Z,22.27
2022-10-11T14:14:30.901Z,23.52
2022-10-11T14:17:01.046Z,22.31
2022-10-11T14:19:32.035Z,22.01
2022-10-11T14:22:01.916Z,22.32
2022-10-11T14:24:48.215Z,22.41
2022-10-11T14:27:18.058Z,22.32
2022-10-11T14:30:30.437Z,19.35
2022-10-11T14:33:00.896Z,20.77
2022-10-11T14:35:30.226Z,21.63
2022-10-11T14:38:13.411Z,22.23
2022-10-11T14:40:44.756Z,20.78
2022-10-11T14:43:17.138Z,20.19
2022-10-11T14:46:04.697Z,21.29
2022-10-11T14:48:53.654Z,21.49
2022-10-11T14:51:23.852Z,19.38
2022-10-11T14:53:51.752Z,21.14
2022-10-11T14:56:23.815Z,19.40
2022-10-11T14:58:52.342Z,19.03
2022-10-11T15:01:20.281Z,19.70
2022-10-11T15:03:48.291Z,21.68
2022-10-11T15:06:58.838Z,18.62
2022-10-11T15:18:10.309Z,18.53
2022-10-11T15:24:22.044Z,20.24
2022-10-11T15:31:31.645Z,17.71
2022-10-11T15:39:32.191Z,21.30
2022-10-11T15:41:40.597Z,18.46
2022-10-11T15:50:37.705Z,19.62
2022-10-11T15:53:06.944Z,19.99
2022-10-11T15:55:45.374Z,18.23
2022-10-11T15:58:23.080Z,20.84
2022-10-11T16:00:55.211Z,20.78
2022-10-11T16:03:24.212Z,19.74
2022-10-11T16:06:09.587Z,18.09
2022-10-11T16:08:41.495Z,18.27
2022-10-11T16:11:19.394Z,19.70
2022-10-11T16:13:59.343Z,19.68
2022-10-11T16:16:43.311Z,18.00
2022-10-11T16:19:11.980Z,18.56
2022-10-11T16:21:50.416Z,17.72
2022-10-11T16:24:32.298Z,20.13
2022-10-11T16:27:28.489Z,17.28
2022-10-11T16:33:04.563Z,18.99
2022-10-11T16:35:35.376Z,18.67
2022-10-11T16:38:07.508Z,16.95
2022-10-11T16:40:36.185Z,18.42
2022-10-11T16:43:16.878Z,17.79
2022-10-11T16:45:50.012Z,16.45
2022-10-11T16:48:39.535Z,19.28
2022-10-11T16:51:12.123Z,16.66
2022-10-11T16:53:57.205Z,17.88
2022-10-11T16:56:50.161Z,16.47
2022-10-11T16:59:32.008Z,17.77
2022-10-11T17:02:00.322Z,15.90
2022-10-11T17:04:37.380Z,16.77
2022-10-11T17:07:16.268Z,18.44
2022-10-11T17:09:46.601Z,17.75
2022-10-11T17:12:15.395Z,16.61
2022-10-11T17:14:43.387Z,17.35
2022-10-11T17:17:11.529Z,18.07
2022-10-11T17:19:44.831Z,17.95
2022-10-11T17:22:13.698Z,17.65
2022-10-11T17:24:41.785Z,16.72
2022-10-11T17:27:11.251Z,16.51
2022-10-11T17:29:39.513Z,17.56
2022-10-11T17:32:07.602Z,17.48
2022-10-11T17:34:36.218Z,15.02
2022-10-11T17:37:04.973Z,16.50
2022-10-11T17:39:34.631Z,17.19
2022-10-11T17:42:07.377Z,14.59
2022-10-11T17:45:04.013Z,15.80
2022-10-11T17:47:32.547Z,13.91
2022-10-11T17:50:04.789Z,16.03
2022-10-11T17:52:36.476Z,16.89
2022-10-11T17:55:04.793Z,15.64
2022-10-11T17:57:34.942Z,16.14
2022-10-11T18:00:12.849Z,16.02
2022-10-11T18:03:18.248Z,16.68
2022-10-11T18:05:47.525Z,16.61
2022-10-11T18:08:15.535Z,13.89
2022-10-11T18:10:47.438Z,15.22
2022-10-11T18:13:15.734Z,16.37
2022-10-11T18:15:50.220Z,15.73
2022-10-11T18:18:21.377Z,16.35
2022-10-11T18:20:49.817Z,14.94
2022-10-11T18:23:18.303Z,15.57
2022-10-11T18:26:12.792Z,15.00
2022-10-11T18:28:41.595Z,15.37
2022-10-11T18:31:13.566Z,15.04
2022-10-11T18:33:41.966Z,14.57
2022-10-11T18:36:13.811Z,13.83
2022-10-11T18:38:43.911Z,12.75
2022-10-11T18:41:11.896Z,15.39
2022-10-11T18:43:39.782Z,15.20
2022-10-11T18:46:08.761Z,13.82
2022-10-11T18:48:38.802Z,14.37
2022-10-11T18:51:07.418Z,15.45
2022-10-11T18:53:36.524Z,13.94
2022-10-11T18:56:06.424Z,14.96
2022-10-11T18:58:35.093Z,15.51
2022-10-11T19:01:05.863Z,12.84
2022-10-11T19:03:35.241Z,15.41
2022-10-11T19:06:05.734Z,14.32
2022-10-11T19:08:33.918Z,13.48
2022-10-11T19:11:10.913Z,13.89
2022-10-11T19:13:38.753Z,13.17
2022-10-11T19:16:07.825Z,12.60
2022-10-11T19:18:37.491Z,14.08
2022-10-11T19:21:10.620Z,15.03
2022-10-11T19:23:39.744Z,14.15
2022-10-11T19:26:08.495Z,13.68
2022-10-11T19:28:36.643Z,13.82
2022-10-11T19:31:05.203Z,11.95
2022-10-11T19:33:33.275Z,13.30
2022-10-11T19:36:02.518Z,15.06
2022-10-11T19:38:31.861Z,13.35
2022-10-11T19:41:01.109Z,13.53
2022-10-11T19:43:28.849Z,14.94
2022-10-11T19:46:00.654Z,14.16
2022-10-11T19:48:28.681Z,14.23
2022-10-11T19:51:03.132Z,12.88
2022-10-11T19:53:33.926Z,14.08
2022-10-11T19:56:03.706Z,13.06
2022-10-11T19:58:31.558Z,12.71
2022-10-11T20:01:03.490Z,11.64
2022-10-11T20:03:32.943Z,11.60
2022-10-11T20:06:01.442Z,13.59
2022-10-11T20:08:31.354Z,14.61
2022-10-11T20:14:18.038Z,14.53
2022-10-11T21:49:25.432Z,13.31
2022-10-11T23:19:58.953Z,9.31
2022-10-11T23:27:13.406Z,11.59
2022-10-11T23:33:38.040Z,12.25
2022-10-11T23:36:22.029Z,9.11
2022-10-11T23:39:16.843Z,9.72
2022-10-11T23:42:07.606Z,9.93
2022-10-11T23:44:53.255Z,11.99
2022-10-11T23:47:39.064Z,11.96
2022-10-11T23:50:16.742Z,10.73
2022-10-11T23:52:54.895Z,9.11
2022-10-11T23:56:05.683Z,10.45
2022-10-11T23:59:03.206Z,11.81
